Time;durP1;ratioP1;P1;durP2;ratioP2;P2;SDS_P1;SDS_P2;PMS_P1;PMS_P2;Temp;Humidity;BMP_temperature;BMP_pressure;BME280_temperature;BME280_humidity;BME280_pressure;Samples;Min_cycle;Max_cycle;Signal;HPM_P1;HPM_P2
2022/11/22 00:01:33;;;;;;;4.03;3.33;;;20.80;42.40;;;;;;5073567;28;20131;-56
2022/11/22 00:03:58;;;;;;;3.42;3.13;;;20.80;42.30;;;;;;5073296;28;20086;-57
2022/11/22 00:06:24;;;;;;;4.45;3.28;;;20.70;42.20;;;;;;5079723;28;20086;-59
2022/11/22 00:08:50;;;;;;;3.58;3.08;;;20.70;42.30;;;;;;5072121;28;20048;-55
2022/11/22 00:11:15;;;;;;;4.50;3.58;;;20.70;42.30;;;;;;5071162;28;20389;-56
2022/11/22 00:13:41;;;;;;;3.45;3.15;;;20.60;42.20;;;;;;5070210;28;20059;-56
2022/11/22 00:16:07;;;;;;;3.10;2.90;;;20.60;42.30;;;;;;5073082;28;20083;-56
2022/11/22 00:18:32;;;;;;;3.35;3.03;;;20.60;42.20;;;;;;5071819;28;20080;-55
2022/11/22 00:21:06;;;;;;;3.08;2.78;;;20.60;42.30;;;;;;5071105;28;20497;-56
2022/11/22 00:23:32;;;;;;;3.28;2.97;;;20.50;42.10;;;;;;5086943;28;20056;-56
2022/11/22 00:25:58;;;;;;;3.58;2.88;;;20.50;42.20;;;;;;5070554;28;20044;-56
2022/11/22 00:28:24;;;;;;;2.85;2.65;;;20.50;42.20;;;;;;5070660;28;20048;-58
2022/11/22 00:30:49;;;;;;;3.85;3.30;;;20.50;42.20;;;;;;5072617;28;20098;-57
2022/11/22 00:33:15;;;;;;;3.20;2.90;;;20.50;42.20;;;;;;5072287;28;20048;-57
2022/11/22 00:35:41;;;;;;;4.07;3.10;;;20.50;42.20;;;;;;5071531;28;20036;-57
2022/11/22 00:38:07;;;;;;;3.28;2.95;;;20.50;42.20;;;;;;5055015;28;20130;-56
2022/11/22 00:40:32;;;;;;;3.63;3.17;;;20.40;42.20;;;;;;5073424;28;20127;-57
2022/11/22 00:42:58;;;;;;;3.50;3.15;;;20.40;42.20;;;;;;5058362;28;20507;-56
2022/11/22 00:45:23;;;;;;;3.00;2.80;;;20.40;42.20;;;;;;5075317;28;20095;-57
2022/11/22 00:47:49;;;;;;;3.15;2.53;;;20.40;42.20;;;;;;5074154;28;21384;-56
2022/11/22 00:50:15;;;;;;;2.95;2.67;;;20.40;42.20;;;;;;5076581;28;20048;-55
2022/11/22 00:52:41;;;;;;;2.78;2.58;;;20.30;42.20;;;;;;5076377;28;20048;-59
2022/11/22 00:55:06;;;;;;;3.15;2.90;;;20.30;42.20;;;;;;5060086;28;20048;-58
2022/11/22 00:57:32;;;;;;;3.13;2.85;;;20.30;42.20;;;;;;5081107;28;20052;-57
2022/11/22 00:59:58;;;;;;;3.05;2.78;;;20.30;42.20;;;;;;5074715;28;20047;-57
2022/11/22 01:02:24;;;;;;;2.58;2.38;;;20.30;42.20;;;;;;5072781;28;20040;-56
2022/11/22 01:04:49;;;;;;;3.00;2.40;;;20.30;42.20;;;;;;5073672;28;20478;-58
2022/11/22 01:07:15;;;;;;;3.35;2.58;;;20.20;42.10;;;;;;5077297;28;20040;-59
2022/11/22 01:09:41;;;;;;;2.85;2.65;;;20.20;42.20;;;;;;5072485;28;20037;-59
2022/11/22 01:12:06;;;;;;;2.72;2.47;;;20.20;42.20;;;;;;5074284;28;20032;-57
2022/11/22 01:14:32;;;;;;;2.63;2.35;;;20.20;42.10;;;;;;5074464;28;20060;-57
2022/11/22 01:16:58;;;;;;;2.70;2.50;;;20.20;42.10;;;;;;5076522;28;20719;-54
2022/11/22 01:19:23;;;;;;;2.92;2.63;;;20.20;42.20;;;;;;5071333;28;20167;-57
2022/11/22 01:21:49;;;;;;;2.30;2.10;;;20.20;42.20;;;;;;5074805;28;20387;-56
2022/11/22 01:24:15;;;;;;;2.95;2.38;;;20.10;42.10;;;;;;5074933;28;20040;-56
2022/11/22 01:26:40;;;;;;;2.90;2.60;;;20.10;42.10;;;;;;5076156;28;20044;-57
2022/11/22 01:29:06;;;;;;;3.25;2.50;;;20.10;42.10;;;;;;5073700;28;20560;-55
2022/11/22 01:31:32;;;;;;;2.60;2.40;;;20.10;42.20;;;;;;5073430;28;20090;-56
2022/11/22 01:33:58;;;;;;;2.75;2.22;;;20.10;42.20;;;;;;5063746;28;20087;-56
2022/11/22 01:36:24;;;;;;;2.40;2.20;;;20.10;42.10;;;;;;5073746;28;20040;-59
2022/11/22 01:38:50;;;;;;;2.65;2.30;;;20.10;42.20;;;;;;5075009;28;20044;-56
2022/11/22 01:41:16;;;;;;;2.47;2.30;;;20.10;42.20;;;;;;5072473;28;20048;-57
2022/11/22 01:43:42;;;;;;;3.00;2.70;;;20.10;42.20;;;;;;5074111;28;20070;-56
2022/11/22 01:46:31;;;;;;;2.08;1.88;;;20.10;42.20;;;;;;5076015;28;20036;-57
2022/11/22 01:49:07;;;;;;;2.35;2.15;;;20.00;42.10;;;;;;5056732;28;20048;-56
2022/11/22 01:51:37;;;;;;;2.15;2.05;;;20.00;42.20;;;;;;5075038;28;20044;-59
2022/11/22 01:54:14;;;;;;;2.33;2.13;;;20.00;42.30;;;;;;5073073;28;20381;-57
2022/11/22 01:56:43;;;;;;;2.65;2.45;;;20.00;42.30;;;;;;5074264;28;20068;-55
2022/11/22 01:59:15;;;;;;;2.28;2.08;;;19.90;42.30;;;;;;5089792;28;20036;-56
2022/11/22 02:01:40;;;;;;;2.63;1.95;;;20.00;42.20;;;;;;5058333;28;20067;-57
2022/11/22 02:04:08;;;;;;;2.25;2.05;;;19.90;42.20;;;;;;5075237;28;20040;-57
2022/11/22 02:07:03;;;;;;;2.40;2.20;;;19.90;42.20;;;;;;5074425;28;20497;-56
2022/11/22 02:09:29;;;;;;;2.40;2.20;;;19.90;42.10;;;;;;5058452;28;20040;-56
2022/11/22 02:11:58;;;;;;;2.50;2.30;;;19.90;42.30;;;;;;5071527;28;20045;-56
2022/11/22 02:14:25;;;;;;;3.05;2.20;;;19.90;42.30;;;;;;5073970;28;20048;-56
2022/11/22 02:16:51;;;;;;;2.50;2.30;;;19.90;42.30;;;;;;5074696;28;20084;-56
2022/11/22 02:19:22;;;;;;;2.45;2.25;;;19.90;42.30;;;;;;5072835;28;20056;-55
2022/11/22 02:21:54;;;;;;;2.45;2.25;;;19.90;42.30;;;;;;5074012;28;20555;-55
2022/11/22 02:24:29;;;;;;;2.42;2.22;;;19.90;42.40;;;;;;5074849;28;20123;-57
2022/11/22 02:26:55;;;;;;;2.20;2.00;;;19.80;42.30;;;;;;5064015;28;20051;-56
2022/11/22 02:29:21;;;;;;;2.13;1.92;;;19.80;42.30;;;;;;5063045;28;20040;-58
2022/11/22 02:31:46;;;;;;;2.10;1.90;;;19.80;42.30;;;;;;5069995;28;20044;-56
2022/11/22 02:34:12;;;;;;;2.30;2.10;;;19.80;42.30;;;;;;5057343;28;20051;-56
2022/11/22 02:36:48;;;;;;;2.08;1.90;;;19.80;42.30;;;;;;5073460;28;20048;-57
2022/11/22 02:39:19;;;;;;;2.20;2.10;;;19.80;42.30;;;;;;5070828;28;20036;-54
2022/11/22 02:41:45;;;;;;;1.98;1.77;;;19.80;42.40;;;;;;5074029;28;20060;-57
2022/11/22 02:44:12;;;;;;;2.17;1.98;;;19.70;42.40;;;;;;5070203;28;20047;-58
2022/11/22 02:46:50;;;;;;;2.15;1.98;;;19.70;42.30;;;;;;5073183;28;20060;-56
2022/11/22 02:49:20;;;;;;;2.30;2.10;;;19.70;42.40;;;;;;5072748;28;20388;-56
2022/11/22 02:51:47;;;;;;;2.10;1.90;;;19.70;43.10;;;;;;5072925;28;20059;-58
2022/11/22 02:54:13;;;;;;;1.73;1.63;;;19.70;42.40;;;;;;5072552;28;20035;-56
2022/11/22 02:56:38;;;;;;;1.95;1.75;;;19.70;42.40;;;;;;5073055;28;20041;-57
2022/11/22 02:59:04;;;;;;;2.38;2.05;;;19.70;42.40;;;;;;5073042;28;20036;-58
2022/11/22 03:01:30;;;;;;;2.00;1.90;;;19.70;42.40;;;;;;5070349;28;20509;-56
2022/11/22 03:03:55;;;;;;;2.13;1.92;;;19.70;42.40;;;;;;5072136;28;20483;-59
2022/11/22 03:06:21;;;;;;;2.45;1.77;;;19.70;42.50;;;;;;5071895;28;20071;-55
2022/11/22 03:08:49;;;;;;;2.50;2.10;;;19.60;43.10;;;;;;5073392;28;20604;-53
2022/11/22 03:11:15;;;;;;;1.90;1.80;;;19.60;42.40;;;;;;5073330;28;20133;-54
2022/11/22 03:13:41;;;;;;;1.70;1.60;;;19.60;42.40;;;;;;5057611;28;20043;-56
2022/11/22 03:16:07;;;;;;;1.90;1.73;;;19.60;42.50;;;;;;5072534;28;20040;-57
2022/11/22 03:18:34;;;;;;;2.22;1.80;;;19.60;42.50;;;;;;5071236;28;20523;-55
2022/11/22 03:21:07;;;;;;;1.95;1.70;;;19.60;42.50;;;;;;5071519;28;20090;-57
2022/11/22 03:23:33;;;;;;;1.60;1.50;;;19.60;42.50;;;;;;5077953;28;20043;-55
2022/11/22 03:26:06;;;;;;;1.80;1.70;;;19.60;42.60;;;;;;5056843;28;20125;-57
2022/11/22 03:28:32;;;;;;;2.50;1.80;;;19.60;42.50;;;;;;5071198;28;20060;-54
2022/11/22 03:30:57;;;;;;;1.90;1.60;;;19.60;42.60;;;;;;5069825;28;20036;-57
2022/11/22 03:33:23;;;;;;;1.65;1.55;;;19.60;42.60;;;;;;5071885;28;20036;-56
2022/11/22 03:35:49;;;;;;;1.75;1.65;;;19.60;42.60;;;;;;5073523;28;20040;-58
2022/11/22 03:38:14;;;;;;;1.70;1.60;;;19.50;42.70;;;;;;5073449;28;20079;-55
2022/11/22 03:40:45;;;;;;;1.70;1.60;;;19.50;42.60;;;;;;5072874;28;20097;-57
2022/11/22 03:43:10;;;;;;;1.98;1.60;;;19.50;42.60;;;;;;5070942;28;20048;-59
2022/11/22 03:45:36;;;;;;;2.20;1.55;;;19.50;42.60;;;;;;5077674;28;20040;-55
2022/11/22 03:48:02;;;;;;;2.08;1.70;;;19.50;42.60;;;;;;5071045;28;20605;-56
2022/11/22 03:50:28;;;;;;;1.60;1.50;;;19.50;42.70;;;;;;5071632;28;20071;-56
2022/11/22 03:52:53;;;;;;;2.20;1.40;;;19.50;42.70;;;;;;5070887;28;20097;-56
2022/11/22 03:55:19;;;;;;;2.08;1.70;;;19.40;42.70;;;;;;5072747;28;20040;-56
2022/11/22 03:57:45;;;;;;;1.88;1.77;;;19.50;42.70;;;;;;5078274;28;20471;-56
2022/11/22 04:00:11;;;;;;;1.50;1.40;;;19.50;42.70;;;;;;5068347;28;20044;-55
2022/11/22 04:02:37;;;;;;;1.60;1.50;;;19.40;42.70;;;;;;5070626;28;20072;-56
2022/11/22 04:05:03;;;;;;;1.90;1.70;;;19.40;42.80;;;;;;5070341;28;20090;-58
2022/11/22 04:07:29;;;;;;;2.30;1.48;;;19.40;42.80;;;;;;5055423;28;20381;-56
2022/11/22 04:09:54;;;;;;;1.50;1.40;;;19.40;42.80;;;;;;5071659;28;20045;-56
2022/11/22 04:12:20;;;;;;;1.88;1.60;;;19.40;42.80;;;;;;5072189;28;20041;-55
2022/11/22 04:17:46;;;;;;;1.73;1.63;;;19.40;42.90;;;;;;5071542;28;20511;-58
2022/11/22 04:23:14;;;;;;;1.48;1.38;;;19.40;42.90;;;;;;5069752;28;20055;-55
2022/11/22 04:25:42;;;;;;;1.85;1.42;;;19.40;42.90;;;;;;5071902;28;20090;-58
2022/11/22 04:28:10;;;;;;;1.73;1.27;;;19.30;42.90;;;;;;5072799;28;20563;-56
2022/11/22 04:33:21;;;;;;;1.83;1.33;;;19.30;42.90;;;;;;5069634;28;20449;-55
2022/11/22 04:35:46;;;;;;;1.50;1.40;;;19.30;42.90;;;;;;5070375;28;20157;-57
2022/11/22 04:38:14;;;;;;;2.47;1.67;;;19.30;42.90;;;;;;5071866;28;20155;-56
2022/11/22 04:40:39;;;;;;;1.80;1.70;;;19.30;43.00;;;;;;5071712;28;20048;-57
2022/11/22 04:45:51;;;;;;;1.60;1.50;;;19.30;43.70;;;;;;5071687;28;20078;-57
2022/11/22 04:48:18;;;;;;;1.98;1.48;;;19.30;43.00;;;;;;5071152;28;20162;-57
2022/11/22 04:53:29;;;;;;;1.65;1.30;;;19.30;43.00;;;;;;5074764;28;20044;-57
2022/11/22 04:55:55;;;;;;;3.28;1.42;;;19.30;43.00;;;;;;5041225;28;20040;-56
2022/11/22 04:58:21;;;;;;;1.33;1.23;;;19.30;43.00;;;;;;5070767;28;20570;-56
2022/11/22 05:00:47;;;;;;;1.75;1.35;;;19.20;43.70;;;;;;5049424;28;20958;-57
2022/11/22 05:03:13;;;;;;;1.60;1.50;;;19.20;42.90;;;;;;5072790;28;20051;-57
2022/11/22 05:05:41;;;;;;;1.58;1.48;;;19.30;43.00;;;;;;5077605;28;20048;-56
2022/11/22 05:08:07;;;;;;;1.75;1.23;;;19.20;43.00;;;;;;5072142;28;20036;-57
2022/11/22 05:13:19;;;;;;;1.92;1.50;;;19.20;43.00;;;;;;5070946;28;20518;-57
2022/11/22 05:15:45;;;;;;;2.67;1.42;;;19.20;43.00;;;;;;5071359;28;20070;-55
2022/11/22 05:18:11;;;;;;;1.42;1.30;;;19.20;43.20;;;;;;5070174;28;20450;-56
2022/11/22 05:20:36;;;;;;;1.58;1.30;;;19.20;43.20;;;;;;5072842;28;20077;-56
2022/11/22 05:25:47;;;;;;;1.90;1.52;;;19.20;43.20;;;;;;5072462;28;20049;-56
2022/11/22 05:28:13;;;;;;;2.30;1.42;;;19.10;43.10;;;;;;5075747;28;20036;-56
2022/11/22 05:30:39;;;;;;;2.95;1.38;;;19.20;43.20;;;;;;5075386;28;20058;-55
2022/11/22 05:33:05;;;;;;;1.38;1.20;;;19.10;43.10;;;;;;5074906;28;20036;-56
2022/11/22 05:35:31;;;;;;;1.35;1.20;;;19.20;43.20;;;;;;5062585;28;20490;-56
2022/11/22 05:37:57;;;;;;;1.90;1.25;;;19.10;43.20;;;;;;5075429;28;20101;-59
2022/11/22 05:40:24;;;;;;;2.10;1.50;;;19.10;43.20;;;;;;5072325;28;20039;-56
2022/11/22 05:42:50;;;;;;;1.50;1.40;;;19.10;43.20;;;;;;5072906;28;20042;-57
2022/11/22 05:45:16;;;;;;;1.90;1.20;;;19.10;43.20;;;;;;5073208;28;20041;-57
2022/11/22 05:47:42;;;;;;;1.90;1.20;;;19.10;43.20;;;;;;5075371;28;20055;-58
2022/11/22 05:50:08;;;;;;;1.58;1.10;;;19.10;43.30;;;;;;5076194;28;20039;-55
2022/11/22 05:52:34;;;;;;;2.08;1.13;;;19.10;43.30;;;;;;5064196;28;20044;-55
2022/11/22 05:55:00;;;;;;;2.13;1.20;;;19.10;43.30;;;;;;5073948;28;20040;-55
2022/11/22 05:57:27;;;;;;;1.65;1.20;;;19.10;43.30;;;;;;5073732;28;20655;-56
2022/11/22 05:59:53;;;;;;;1.40;1.20;;;19.10;43.20;;;;;;5073586;28;20051;-55
2022/11/22 06:02:19;;;;;;;1.50;1.40;;;19.10;43.30;;;;;;5073434;28;20139;-57
2022/11/22 06:04:45;;;;;;;2.15;1.20;;;19.10;43.30;;;;;;5074041;28;20048;-55
2022/11/22 06:07:11;;;;;;;1.20;0.90;;;19.10;43.30;;;;;;5073982;28;20045;-56
2022/11/22 06:09:37;;;;;;;1.35;1.10;;;19.10;43.30;;;;;;5073518;28;20040;-56
2022/11/22 06:12:03;;;;;;;2.30;1.42;;;19.00;43.20;;;;;;5064865;28;20043;-56
2022/11/22 06:14:29;;;;;;;4.43;1.30;;;19.00;43.20;;;;;;5073597;28;20048;-56
2022/11/22 06:16:54;;;;;;;2.40;1.20;;;19.00;43.20;;;;;;5072581;28;20443;-56
2022/11/22 06:19:20;;;;;;;3.47;1.40;;;19.00;43.20;;;;;;5078949;28;20048;-56
2022/11/22 06:21:46;;;;;;;2.47;1.30;;;19.00;43.20;;;;;;5076124;28;20066;-57
2022/11/22 06:24:12;;;;;;;1.55;1.30;;;19.00;43.30;;;;;;5075301;28;20101;-56
2022/11/22 06:26:37;;;;;;;3.95;1.05;;;19.00;43.60;;;;;;5063438;28;20167;-55
2022/11/22 06:29:03;;;;;;;3.25;1.55;;;19.00;43.30;;;;;;5075155;28;20917;-56
2022/11/22 06:31:29;;;;;;;3.40;1.40;;;19.00;43.30;;;;;;5070716;28;20044;-57
2022/11/22 06:33:58;;;;;;;5.80;1.40;;;19.00;43.40;;;;;;5072731;28;20376;-56
2022/11/22 06:36:29;;;;;;;7.55;1.45;;;19.10;43.60;;;;;;5057832;28;20048;-56
2022/11/22 06:38:56;;;;;;;3.83;1.20;;;19.60;43.20;;;;;;5071202;28;20149;-58
2022/11/22 06:41:24;;;;;;;1.90;1.35;;;20.30;42.20;;;;;;5072881;28;20051;-55
2022/11/22 06:43:51;;;;;;;3.80;1.55;;;21.00;41.00;;;;;;5074558;28;20052;-59
2022/11/22 06:46:19;;;;;;;2.95;1.10;;;21.60;40.00;;;;;;5072256;28;20170;-56
2022/11/22 06:48:45;;;;;;;1.88;1.27;;;22.00;39.30;;;;;;5073590;28;20028;-56
2022/11/22 06:51:19;;;;;;;2.90;1.27;;;22.20;38.90;;;;;;5072106;28;20457;-59
2022/11/22 06:53:46;;;;;;;3.65;1.25;;;22.30;38.90;;;;;;5072359;28;20060;-58
2022/11/22 06:56:17;;;;;;;1.95;1.10;;;22.20;39.00;;;;;;5074589;28;20051;-56
2022/11/22 06:58:44;;;;;;;5.22;1.20;;;22.20;39.20;;;;;;5071816;28;20050;-57
2022/11/22 07:01:15;;;;;;;2.05;1.20;;;22.20;39.30;;;;;;5070879;28;20048;-57
2022/11/22 07:03:42;;;;;;;2.63;1.27;;;22.20;39.40;;;;;;5071460;28;20480;-57
2022/11/22 07:06:09;;;;;;;5.95;1.10;;;22.10;39.50;;;;;;5048886;28;20040;-57
2022/11/22 07:08:36;;;;;;;5.75;1.50;;;21.90;39.70;;;;;;5062718;28;20122;-56
2022/11/22 07:11:04;;;;;;;2.70;1.30;;;21.80;39.90;;;;;;5077075;28;20044;-56
2022/11/22 07:13:30;;;;;;;4.57;1.10;;;21.70;40.00;;;;;;5068245;28;20051;-56
2022/11/22 07:15:58;;;;;;;4.35;1.50;;;21.70;40.10;;;;;;5040817;28;20485;-57
2022/11/22 07:18:26;;;;;;;2.22;1.40;;;21.70;40.10;;;;;;5052577;28;20084;-56
2022/11/22 07:20:52;;;;;;;2.10;1.30;;;21.70;40.30;;;;;;5069340;28;20040;-59
2022/11/22 07:23:18;;;;;;;2.72;1.10;;;21.70;40.40;;;;;;5066932;28;20055;-56
2022/11/22 07:25:48;;;;;;;1.90;1.05;;;21.70;40.40;;;;;;5068125;28;20043;-57
2022/11/22 07:28:14;;;;;;;3.20;1.20;;;21.70;40.50;;;;;;5060643;28;20109;-56
2022/11/22 07:30:41;;;;;;;4.47;1.42;;;21.60;40.50;;;;;;5088741;28;20044;-53
2022/11/22 07:33:08;;;;;;;4.47;1.30;;;21.70;40.50;;;;;;5077555;28;20044;-57
2022/11/22 07:35:35;;;;;;;2.97;1.50;;;21.60;40.50;;;;;;5072517;28;20045;-57
2022/11/22 07:38:01;;;;;;;3.85;1.40;;;21.60;40.50;;;;;;5072724;28;20063;-55
2022/11/22 07:40:27;;;;;;;5.05;1.58;;;21.70;40.60;;;;;;5070267;28;20048;-57
2022/11/22 07:42:52;;;;;;;3.92;1.45;;;21.70;40.60;;;;;;5071171;28;20044;-58
2022/11/22 07:45:18;;;;;;;3.33;1.65;;;21.70;40.50;;;;;;5037750;28;20067;-57
2022/11/22 07:47:44;;;;;;;5.43;1.30;;;21.70;40.50;;;;;;5070180;28;20068;-57
2022/11/22 07:50:10;;;;;;;3.53;1.27;;;21.70;40.70;;;;;;5070036;28;20052;-57
2022/11/22 07:52:37;;;;;;;9.82;1.65;;;21.70;40.60;;;;;;5069282;28;20051;-57
2022/11/22 07:55:05;;;;;;;3.78;1.33;;;21.70;40.50;;;;;;5067917;28;20456;-59
2022/11/22 07:57:31;;;;;;;2.72;1.38;;;21.80;40.50;;;;;;5054084;28;20056;-56
2022/11/22 07:59:57;;;;;;;3.67;1.30;;;21.80;40.40;;;;;;5072406;28;20115;-58
2022/11/22 08:02:23;;;;;;;5.60;1.63;;;21.70;40.30;;;;;;5070610;28;20453;-58
2022/11/22 08:04:50;;;;;;;4.05;1.50;;;21.70;40.30;;;;;;5073002;28;20075;-60
2022/11/22 08:07:16;;;;;;;5.13;1.50;;;21.70;40.30;;;;;;5072645;28;20040;-59
2022/11/22 08:09:41;;;;;;;5.88;1.67;;;21.70;40.50;;;;;;5059945;28;20178;-56
2022/11/22 08:12:08;;;;;;;4.75;1.67;;;21.80;40.60;;;;;;5071218;28;20130;-57
2022/11/22 08:14:34;;;;;;;6.28;1.67;;;21.80;40.60;;;;;;5072756;28;20044;-55
2022/11/22 08:16:59;;;;;;;2.85;1.23;;;21.80;40.60;;;;;;5070352;28;20078;-56
2022/11/22 08:19:25;;;;;;;3.67;1.50;;;21.80;40.60;;;;;;5069661;28;20048;-55
2022/11/22 08:21:51;;;;;;;4.40;1.40;;;21.80;40.50;;;;;;5068518;28;20060;-56
2022/11/22 08:24:16;;;;;;;4.80;1.50;;;21.80;40.60;;;;;;5074058;28;20085;-55
2022/11/22 08:26:42;;;;;;;4.43;1.77;;;21.80;40.60;;;;;;5070311;28;20044;-55
2022/11/22 08:29:11;;;;;;;3.70;1.75;;;21.80;40.70;;;;;;5070757;28;20041;-55
2022/11/22 08:31:37;;;;;;;2.47;1.20;;;21.80;40.60;;;;;;5060968;28;20046;-53
2022/11/22 08:34:03;;;;;;;4.15;1.50;;;21.80;40.90;;;;;;5071049;28;20047;-55
2022/11/22 08:36:30;;;;;;;6.07;1.30;;;21.80;40.80;;;;;;5071003;28;20064;-55
2022/11/22 08:38:56;;;;;;;5.18;1.50;;;21.80;40.70;;;;;;5071508;28;20044;-55
2022/11/22 08:41:22;;;;;;;3.58;1.25;;;21.90;40.80;;;;;;5070075;28;20044;-55
2022/11/22 08:43:51;;;;;;;5.95;1.50;;;21.90;40.90;;;;;;5070483;28;20048;-57
2022/11/22 08:46:18;;;;;;;6.57;1.42;;;21.80;41.00;;;;;;5069758;28;20110;-56
2022/11/22 08:48:44;;;;;;;5.53;1.80;;;21.80;41.20;;;;;;5073151;28;20127;-56
2022/11/22 08:51:11;;;;;;;4.43;1.38;;;21.80;41.20;;;;;;5060100;28;20123;-56
2022/11/22 08:53:42;;;;;;;5.72;1.50;;;21.80;41.20;;;;;;5067750;28;20132;-54
2022/11/22 08:56:11;;;;;;;2.72;1.30;;;21.80;41.30;;;;;;5070229;28;20086;-55
2022/11/22 08:58:37;;;;;;;6.57;1.40;;;21.80;41.40;;;;;;5070728;28;20032;-59
2022/11/22 09:01:04;;;;;;;5.90;1.55;;;21.80;42.20;;;;;;5077825;28;20500;-56
2022/11/22 09:03:30;;;;;;;5.00;2.05;;;21.80;41.60;;;;;;5074042;28;20756;-53
2022/11/22 09:06:07;;;;;;;4.30;1.33;;;21.80;41.70;;;;;;5058109;28;20047;-55
2022/11/22 09:08:33;;;;;;;5.07;1.40;;;21.80;41.90;;;;;;5074328;28;20052;-55
2022/11/22 09:11:01;;;;;;;6.40;1.50;;;21.80;42.10;;;;;;5077442;28;20051;-56
2022/11/22 09:13:27;;;;;;;6.40;1.70;;;21.80;42.30;;;;;;5064251;28;20475;-56
2022/11/22 09:15:53;;;;;;;5.20;1.67;;;21.80;42.30;;;;;;5069009;28;20496;-56
2022/11/22 09:18:19;;;;;;;10.02;1.70;;;21.80;42.40;;;;;;5072963;28;20090;-55
2022/11/22 09:20:44;;;;;;;6.68;1.75;;;21.80;42.30;;;;;;5074952;28;20036;-55
2022/11/22 09:23:10;;;;;;;9.57;2.17;;;21.80;42.40;;;;;;5072273;28;20614;-56
2022/11/22 09:25:36;;;;;;;8.40;1.73;;;21.80;42.50;;;;;;5074722;28;20375;-56
2022/11/22 09:28:02;;;;;;;5.30;1.60;;;21.80;42.70;;;;;;5077965;28;20032;-56
2022/11/22 09:30:28;;;;;;;5.25;1.33;;;21.80;42.80;;;;;;5071878;28;20082;-56
2022/11/22 09:32:54;;;;;;;6.78;1.38;;;21.80;42.90;;;;;;5075829;28;20101;-55
2022/11/22 09:35:20;;;;;;;5.95;1.98;;;21.80;42.80;;;;;;5071484;28;20033;-54
2022/11/22 09:37:46;;;;;;;6.97;1.83;;;21.80;42.80;;;;;;5071192;28;20032;-55
2022/11/22 09:40:13;;;;;;;4.93;2.03;;;21.90;42.80;;;;;;5074924;28;20482;-55
2022/11/22 09:42:54;;;;;;;3.38;1.42;;;21.80;43.40;;;;;;5073088;28;20047;-58
2022/11/22 09:45:53;;;;;;;3.90;1.48;;;21.80;42.70;;;;;;5070857;28;20238;-56
2022/11/22 09:48:44;;;;;;;7.28;1.85;;;21.80;42.80;;;;;;5072826;28;20044;-56
2022/11/22 09:51:20;;;;;;;4.97;1.40;;;21.90;42.80;;;;;;5068182;28;20045;-58
2022/11/22 09:53:54;;;;;;;3.85;1.52;;;21.90;42.70;;;;;;5068498;28;20090;-54
2022/11/22 09:56:24;;;;;;;4.95;1.73;;;21.90;42.60;;;;;;5070834;28;20048;-58
2022/11/22 09:59:03;;;;;;;5.07;1.13;;;21.90;42.50;;;;;;5072608;28;20054;-56
2022/11/22 10:01:42;;;;;;;4.00;1.58;;;21.90;42.60;;;;;;5071141;28;20074;-55
2022/11/22 10:04:22;;;;;;;4.80;1.58;;;21.90;42.60;;;;;;5071675;28;20040;-56
2022/11/22 10:07:00;;;;;;;5.93;1.63;;;21.90;42.50;;;;;;5067570;28;20068;-55
2022/11/22 10:09:46;;;;;;;5.88;1.50;;;22.00;42.70;;;;;;5057623;28;20074;-56
2022/11/22 10:12:23;;;;;;;5.35;1.73;;;21.90;42.70;;;;;;5069763;28;20048;-55
2022/11/22 10:15:03;;;;;;;4.40;1.58;;;21.90;42.50;;;;;;5073942;28;20052;-57
2022/11/22 10:17:37;;;;;;;5.10;1.35;;;22.00;42.70;;;;;;5073573;28;20041;-56
2022/11/22 10:20:12;;;;;;;4.65;1.33;;;21.90;42.60;;;;;;5053842;28;20055;-55
2022/11/22 10:22:38;;;;;;;9.32;1.80;;;21.90;42.40;;;;;;5087273;28;20052;-56
2022/11/22 10:25:18;;;;;;;2.78;1.23;;;21.90;42.50;;;;;;5068608;28;20051;-56
2022/11/22 10:27:51;;;;;;;5.32;1.45;;;21.90;42.60;;;;;;5071531;28;20106;-56
2022/11/22 10:30:19;;;;;;;4.03;1.50;;;21.90;42.60;;;;;;5071789;28;20083;-56
2022/11/22 10:33:00;;;;;;;6.47;1.45;;;22.00;42.70;;;;;;5054022;28;20489;-56
2022/11/22 10:35:34;;;;;;;4.63;1.70;;;22.00;42.80;;;;;;5074049;28;20123;-57
2022/11/22 10:38:18;;;;;;;4.40;1.40;;;22.00;42.80;;;;;;5067507;28;20133;-53
2022/11/22 10:41:05;;;;;;;4.80;1.42;;;22.00;42.90;;;;;;5072778;28;20105;-55
2022/11/22 10:43:40;;;;;;;4.05;1.45;;;22.00;42.90;;;;;;5059827;28;20537;-52
2022/11/22 10:46:16;;;;;;;4.60;1.48;;;22.00;42.80;;;;;;5072610;28;20044;-56
2022/11/22 10:48:51;;;;;;;4.93;1.60;;;22.00;43.00;;;;;;5071335;28;20048;-55
2022/11/22 10:51:42;;;;;;;5.05;1.65;;;22.00;43.20;;;;;;5072886;28;20127;-58
2022/11/22 10:54:22;;;;;;;2.95;1.63;;;22.00;43.50;;;;;;5069349;28;20670;-58
2022/11/22 10:57:13;;;;;;;5.53;1.48;;;22.00;43.50;;;;;;5069195;28;20048;-53
2022/11/22 11:00:24;;;;;;;3.35;1.50;;;22.00;43.70;;;;;;5068533;28;20118;-56
2022/11/22 11:03:07;;;;;;;7.20;1.65;;;22.00;43.70;;;;;;5055925;28;20052;-55
2022/11/22 11:05:55;;;;;;;9.50;1.60;;;22.00;43.60;;;;;;5066448;28;20097;-55
2022/11/22 11:08:58;;;;;;;3.70;1.35;;;22.10;43.70;;;;;;5068658;28;20044;-55
2022/11/22 11:11:25;;;;;;;2.72;1.35;;;22.10;43.60;;;;;;4998483;28;20504;-55
2022/11/22 11:14:01;;;;;;;6.72;1.75;;;22.10;43.50;;;;;;5061278;28;20049;-63
2022/11/22 11:16:31;;;;;;;4.10;1.60;;;22.10;43.40;;;;;;5068232;28;20055;-55
2022/11/22 11:19:14;;;;;;;6.53;1.70;;;22.10;43.50;;;;;;5068979;28;20527;-56
2022/11/22 11:21:40;;;;;;;6.03;1.50;;;22.10;43.50;;;;;;5069270;28;20115;-54
2022/11/22 11:24:16;;;;;;;4.57;1.55;;;22.10;43.70;;;;;;5071856;28;20118;-53
2022/11/22 11:26:54;;;;;;;6.68;1.40;;;22.10;43.70;;;;;;5070253;28;20373;-56
2022/11/22 11:29:31;;;;;;;5.43;1.60;;;22.20;43.70;;;;;;5071091;28;20088;-56
2022/11/22 11:32:08;;;;;;;7.05;1.85;;;22.20;43.70;;;;;;5054675;28;20130;-56
2022/11/22 11:34:35;;;;;;;3.55;1.35;;;22.20;43.70;;;;;;5071447;28;20043;-54
2022/11/22 11:37:02;;;;;;;3.40;1.60;;;22.10;43.60;;;;;;5067397;28;20059;-56
2022/11/22 11:39:33;;;;;;;5.05;1.40;;;22.10;43.50;;;;;;5068651;28;20595;-54
2022/11/22 11:41:59;;;;;;;;;;;22.20;43.60;;;;;;5069421;28;20047;-53
2022/11/22 11:44:30;;;;;;;3.53;1.33;;;22.20;43.70;;;;;;5055513;28;19927;-55
2022/11/22 11:46:57;;;;;;;3.15;1.17;;;22.20;43.80;;;;;;5053097;28;20063;-55
2022/11/22 11:49:25;;;;;;;3.08;1.65;;;22.20;43.70;;;;;;5069139;28;20067;-55
2022/11/22 11:51:58;;;;;;;4.85;1.30;;;22.20;43.70;;;;;;5070739;28;20079;-54
2022/11/22 11:54:27;;;;;;;4.90;1.20;;;22.20;43.70;;;;;;5054496;28;20108;-54
2022/11/22 11:57:03;;;;;;;5.05;1.40;;;22.20;43.60;;;;;;5067315;28;20827;-54
2022/11/22 11:59:44;;;;;;;3.97;1.30;;;22.20;43.50;;;;;;5069348;28;20470;-54
2022/11/22 12:02:18;;;;;;;4.88;1.17;;;22.20;43.50;;;;;;5073949;28;20049;-54
2022/11/22 12:04:53;;;;;;;2.83;1.23;;;22.20;43.50;;;;;;5054317;28;20111;-55
2022/11/22 12:07:22;;;;;;;2.55;1.05;;;22.20;43.40;;;;;;5069863;28;20062;-55
2022/11/22 12:09:51;;;;;;;4.20;1.27;;;22.20;43.40;;;;;;5053591;28;20641;-53
2022/11/22 12:12:26;;;;;;;4.35;1.35;;;22.20;44.00;;;;;;5069581;28;20123;-54
2022/11/22 12:15:03;;;;;;;4.65;1.58;;;22.20;43.20;;;;;;5064695;28;20044;-56
2022/11/22 12:17:34;;;;;;;3.40;1.25;;;22.20;43.20;;;;;;5066925;28;20079;-56
2022/11/22 12:20:16;;;;;;;4.18;1.23;;;22.20;43.10;;;;;;5066649;28;20780;-54
2022/11/22 12:22:51;;;;;;;3.38;1.60;;;22.20;43.10;;;;;;5073768;28;20043;-56
2022/11/22 12:25:48;;;;;;;4.82;1.10;;;22.20;43.10;;;;;;5058629;28;20132;-55
2022/11/22 12:28:19;;;;;;;3.45;1.23;;;22.20;43.00;;;;;;5039412;28;20060;-57
2022/11/22 12:30:51;;;;;;;2.83;1.23;;;22.20;43.00;;;;;;5066292;28;20122;-55
2022/11/22 12:33:35;;;;;;;5.63;1.20;;;22.20;43.00;;;;;;5072115;28;20044;-54
2022/11/22 12:36:03;;;;;;;4.20;1.00;;;22.20;42.80;;;;;;5071681;28;20040;-54
2022/11/22 12:38:35;;;;;;;7.10;1.38;;;22.20;42.80;;;;;;5072352;28;20044;-55
2022/11/22 12:41:05;;;;;;;2.53;0.90;;;22.20;43.40;;;;;;5058746;28;20048;-54
2022/11/22 12:43:44;;;;;;;3.70;1.10;;;22.20;42.60;;;;;;5073041;28;20058;-56
2022/11/22 12:46:18;;;;;;;2.63;1.35;;;22.30;42.70;;;;;;5072940;28;20128;-54
2022/11/22 12:48:53;;;;;;;3.92;1.20;;;22.20;42.50;;;;;;5074264;28;20085;-55
2022/11/22 12:51:42;;;;;;;2.30;0.80;;;22.20;42.50;;;;;;5073266;28;20080;-55
2022/11/22 12:54:21;;;;;;;2.72;1.20;;;22.30;42.30;;;;;;5066127;28;20377;-57
2022/11/22 12:56:58;;;;;;;4.03;0.88;;;22.20;42.30;;;;;;5072406;28;20056;-58
2022/11/22 12:59:54;;;;;;;4.63;1.20;;;22.20;42.20;;;;;;5074453;28;20049;-55
2022/11/22 13:02:39;;;;;;;3.40;1.30;;;22.20;42.20;;;;;;5067187;28;20059;-56
2022/11/22 13:05:16;;;;;;;2.33;1.13;;;22.20;42.50;;;;;;5070521;28;20115;-58
2022/11/22 13:07:50;;;;;;;5.20;1.10;;;22.20;42.60;;;;;;5074170;28;20044;-56
2022/11/22 13:10:29;;;;;;;4.90;1.23;;;22.20;42.60;;;;;;5072769;28;20044;-55
2022/11/22 13:12:57;;;;;;;4.30;1.40;;;22.20;42.60;;;;;;5070772;28;20052;-53
2022/11/22 13:15:33;;;;;;;7.50;1.33;;;22.20;42.60;;;;;;5070949;28;20278;-55
2022/11/22 13:18:00;;;;;;;7.30;1.30;;;22.20;42.70;;;;;;5071051;28;20108;-54
2022/11/22 13:20:32;;;;;;;4.00;1.15;;;22.20;42.80;;;;;;5063389;28;20082;-55